Station History

Weather Underground - logo

Station Historical Data
Daily Summary for February 15, 2018 Units:  Both    English   Metric
« Previous Day
Next Day »
Daily Weekly Monthly Yearly Custom
  High: Low: Average:
Temperature: 63.7 °F /  17.6 °C 36.3 °F /  2.4 °C 48.8 °F /  9.3 °C
Dew Point: 42.9 °F /  6.1 °C 32.7 °F /  0.4 °C 37.6 °F /  3.1 °C
Humidity: 90 % 39 % 68 %
Wind Speed: 4.6 mph /  7.4 km/h - 0.6 mph /  1 km/h
Wind Gust: 4.6 mph /  7.4 km/h - -
Wind:- - SW
Pressure: 30.32 in /  1026.6 hPa 30.14 in /  1020.5 hPa -
Precipitation: 0.00 in /  0 mm    
Historical Graphs
 
 
Tabular Data for February 15, 2018
Time Temperature Dew Point Pressure Wind Wind Speed Wind Gust Humidity Rainfall Rate (Hourly)
00:01 42.0 °F /  5.6 °C 36.6 °F /  2.6 °C 30.15 in /  1020.9 hPa Calm     81 % 0.00 in /  0 mm
00:06 42.4 °F /  5.8 °C 36.7 °F /  2.6 °C 30.15 in /  1020.9 hPa Calm     80 % 0.00 in /  0 mm
00:11 42.3 °F /  5.7 °C 36.6 °F /  2.6 °C 30.15 in /  1020.9 hPa Calm     80 % 0.00 in /  0 mm
00:16 41.8 °F /  5.4 °C 36.1 °F /  2.3 °C 30.15 in /  1020.9 hPa Calm     80 % 0.00 in /  0 mm
00:21 41.8 °F /  5.4 °C 36.1 °F /  2.3 °C 30.15 in /  1020.9 hPa Calm     80 % 0.00 in /  0 mm
00:26 41.6 °F /  5.3 °C 35.9 °F /  2.2 °C 30.15 in /  1020.9 hPa Calm     80 % 0.00 in /  0 mm
00:31 41.4 °F /  5.2 °C 36.3 °F /  2.4 °C 30.15 in /  1020.9 hPa Calm     82 % 0.00 in /  0 mm
00:36 41.8 °F /  5.4 °C 36.4 °F /  2.4 °C 30.15 in /  1020.9 hPa Calm     81 % 0.00 in /  0 mm
00:41 41.3 °F /  5.2 °C 35.6 °F /  2 °C 30.15 in /  1020.9 hPa Calm     80 % 0.00 in /  0 mm
00:46 41.2 °F /  5.1 °C 36.1 °F /  2.3 °C 30.15 in /  1020.9 hPa Calm     82 % 0.00 in /  0 mm
00:51 41.2 °F /  5.1 °C 36.1 °F /  2.3 °C 30.15 in /  1020.9 hPa Calm     82 % 0.00 in /  0 mm
00:56 41.0 °F /  5 °C 35.9 °F /  2.2 °C 30.15 in /  1020.9 hPa Calm     82 % 0.00 in /  0 mm
01:01 40.8 °F /  4.9 °C 35.7 °F /  2.1 °C 30.15 in /  1020.9 hPa Calm     82 % 0.00 in /  0 mm
01:06 40.7 °F /  4.8 °C 35.9 °F /  2.2 °C 30.15 in /  1020.9 hPa Calm     83 % 0.00 in /  0 mm
01:11 40.5 °F /  4.7 °C 35.7 °F /  2.1 °C 30.15 in /  1020.9 hPa Calm     83 % 0.00 in /  0 mm
01:16 40.4 °F /  4.7 °C 35.9 °F /  2.2 °C 30.15 in /  1020.9 hPa Calm     84 % 0.00 in /  0 mm
01:21 40.9 °F /  4.9 °C 36.1 °F /  2.3 °C 30.15 in /  1020.9 hPa Calm     83 % 0.00 in /  0 mm
01:26 41.1 °F /  5.1 °C 36.0 °F /  2.2 °C 30.15 in /  1020.9 hPa Calm     82 % 0.00 in /  0 mm
01:31 41.3 °F /  5.2 °C 36.2 °F /  2.3 °C 30.15 in /  1020.9 hPa Calm     82 % 0.00 in /  0 mm
01:37 41.3 °F /  5.2 °C 35.9 °F /  2.2 °C 30.15 in /  1020.9 hPa Calm     81 % 0.00 in /  0 mm
01:42 41.3 °F /  5.2 °C 36.2 °F /  2.3 °C 30.15 in /  1020.9 hPa Calm     82 % 0.00 in /  0 mm
01:47 41.2 °F /  5.1 °C 36.1 °F /  2.3 °C 30.15 in /  1020.9 hPa Calm     82 % 0.00 in /  0 mm
01:52 40.9 °F /  4.9 °C 35.5 °F /  1.9 °C 30.15 in /  1020.9 hPa Calm     81 % 0.00 in /  0 mm
01:57 40.8 °F /  4.9 °C 35.7 °F /  2.1 °C 30.15 in /  1020.9 hPa Calm     82 % 0.00 in /  0 mm
02:02 40.6 °F /  4.8 °C 35.5 °F /  1.9 °C 30.15 in /  1020.9 hPa Calm     82 % 0.00 in /  0 mm
02:07 40.4 °F /  4.7 °C 35.3 °F /  1.8 °C 30.15 in /  1020.9 hPa Calm     82 % 0.00 in /  0 mm
02:12 40.0 °F /  4.4 °C 34.6 °F /  1.4 °C 30.15 in /  1020.9 hPa Calm     81 % 0.00 in /  0 mm
02:17 39.3 °F /  4.1 °C 34.6 °F /  1.4 °C 30.14 in /  1020.5 hPa Calm     83 % 0.00 in /  0 mm
02:22 39.3 °F /  4.1 °C 34.9 °F /  1.6 °C 30.15 in /  1020.9 hPa Calm     84 % 0.00 in /  0 mm
02:27 39.5 °F /  4.2 °C 34.8 °F /  1.6 °C 30.15 in /  1020.9 hPa Calm     83 % 0.00 in /  0 mm
02:32 39.3 °F /  4.1 °C 34.6 °F /  1.4 °C 30.15 in /  1020.9 hPa Calm     83 % 0.00 in /  0 mm
02:37 39.1 °F /  3.9 °C 34.4 °F /  1.3 °C 30.14 in /  1020.5 hPa Calm     83 % 0.00 in /  0 mm
02:42 39.0 °F /  3.9 °C 34.6 °F /  1.4 °C 30.14 in /  1020.5 hPa Calm     84 % 0.00 in /  0 mm
02:47 39.3 °F /  4.1 °C 34.9 °F /  1.6 °C 30.14 in /  1020.5 hPa Calm     84 % 0.00 in /  0 mm
02:52 39.4 °F /  4.1 °C 34.7 °F /  1.5 °C 30.14 in /  1020.5 hPa Calm     83 % 0.00 in /  0 mm
02:57 39.5 °F /  4.2 °C 34.8 °F /  1.6 °C 30.14 in /  1020.5 hPa Calm     83 % 0.00 in /  0 mm
03:02 39.4 °F /  4.1 °C 34.7 °F /  1.5 °C 30.14 in /  1020.5 hPa Calm     83 % 0.00 in /  0 mm
03:07 39.5 °F /  4.2 °C 34.8 °F /  1.6 °C 30.14 in /  1020.5 hPa Calm     83 % 0.00 in /  0 mm
03:12 39.7 °F /  4.3 °C 34.7 °F /  1.5 °C 30.14 in /  1020.5 hPa Calm     82 % 0.00 in /  0 mm
03:17 39.3 °F /  4.1 °C 34.3 °F /  1.3 °C 30.14 in /  1020.5 hPa Calm     82 % 0.00 in /  0 mm
03:22 38.9 °F /  3.8 °C 33.9 °F /  1.1 °C 30.14 in /  1020.5 hPa Calm     82 % 0.00 in /  0 mm
03:27 38.7 °F /  3.7 °C 34.0 °F /  1.1 °C 30.14 in /  1020.5 hPa Calm     83 % 0.00 in /  0 mm
03:32 38.7 °F /  3.7 °C 34.0 °F /  1.1 °C 30.14 in /  1020.5 hPa Calm     83 % 0.00 in /  0 mm
03:37 38.6 °F /  3.7 °C 33.9 °F /  1.1 °C 30.15 in /  1020.9 hPa Calm     83 % 0.00 in /  0 mm
03:42 38.2 °F /  3.4 °C 33.8 °F /  1 °C 30.15 in /  1020.9 hPa Calm     84 % 0.00 in /  0 mm
03:47 37.7 °F /  3.2 °C 33.3 °F /  0.7 °C 30.15 in /  1020.9 hPa Calm     84 % 0.00 in /  0 mm
03:52 37.4 °F /  3 °C 33.3 °F /  0.7 °C 30.15 in /  1020.9 hPa Calm     85 % 0.00 in /  0 mm
03:57 37.5 °F /  3.1 °C 33.7 °F /  0.9 °C 30.15 in /  1020.9 hPa Calm     86 % 0.00 in /  0 mm
04:02 37.7 °F /  3.2 °C 33.9 °F /  1.1 °C 30.15 in /  1020.9 hPa Calm     86 % 0.00 in /  0 mm
04:07 37.5 °F /  3.1 °C 33.4 °F /  0.8 °C 30.15 in /  1020.9 hPa Calm     85 % 0.00 in /  0 mm
04:12 37.4 °F /  3 °C 33.6 °F /  0.9 °C 30.15 in /  1020.9 hPa Calm     86 % 0.00 in /  0 mm
04:17 37.5 °F /  3.1 °C 33.7 °F /  0.9 °C 30.15 in /  1020.9 hPa Calm     86 % 0.00 in /  0 mm
04:22 37.4 °F /  3 °C 33.6 °F /  0.9 °C 30.15 in /  1020.9 hPa Calm     86 % 0.00 in /  0 mm
04:27 37.3 °F /  2.9 °C 33.5 °F /  0.8 °C 30.15 in /  1020.9 hPa Calm     86 % 0.00 in /  0 mm
04:32 36.8 °F /  2.7 °C 32.7 °F /  0.4 °C 30.15 in /  1020.9 hPa Calm     85 % 0.00 in /  0 mm
04:37 36.8 °F /  2.7 °C 33.3 °F /  0.7 °C 30.15 in /  1020.9 hPa Calm     87 % 0.00 in /  0 mm
04:42 37.0 °F /  2.8 °C 33.8 °F /  1 °C 30.16 in /  1021.2 hPa Calm     88 % 0.00 in /  0 mm
04:47 37.4 °F /  3 °C 34.2 °F /  1.2 °C 30.16 in /  1021.2 hPa Calm     88 % 0.00 in /  0 mm
04:52 37.4 °F /  3 °C 33.9 °F /  1.1 °C 30.16 in /  1021.2 hPa Calm     87 % 0.00 in /  0 mm
04:57 37.3 °F /  2.9 °C 33.8 °F /  1 °C 30.16 in /  1021.2 hPa Calm     87 % 0.00 in /  0 mm
05:02 37.1 °F /  2.8 °C 33.3 °F /  0.7 °C 30.16 in /  1021.2 hPa Calm     86 % 0.00 in /  0 mm
05:07 36.9 °F /  2.7 °C 33.1 °F /  0.6 °C 30.16 in /  1021.2 hPa Calm     86 % 0.00 in /  0 mm
05:12 36.7 °F /  2.6 °C 33.2 °F /  0.7 °C 30.16 in /  1021.2 hPa Calm     87 % 0.00 in /  0 mm
05:17 36.9 °F /  2.7 °C 33.7 °F /  0.9 °C 30.17 in /  1021.6 hPa Calm     88 % 0.00 in /  0 mm
05:22 36.8 °F /  2.7 °C 33.3 °F /  0.7 °C 30.17 in /  1021.6 hPa Calm     87 % 0.00 in /  0 mm
05:28 36.8 °F /  2.7 °C 33.3 °F /  0.7 °C 30.17 in /  1021.6 hPa Calm     87 % 0.00 in /  0 mm
05:33 37.2 °F /  2.9 °C 34.0 °F /  1.1 °C 30.17 in /  1021.6 hPa Calm     88 % 0.00 in /  0 mm
05:37 37.3 °F /  2.9 °C 33.8 °F /  1 °C 30.18 in /  1021.9 hPa Calm     87 % 0.00 in /  0 mm
05:42 37.5 °F /  3.1 °C 34.0 °F /  1.1 °C 30.18 in /  1021.9 hPa Calm     87 % 0.00 in /  0 mm
05:48 37.5 °F /  3.1 °C 33.7 °F /  0.9 °C 30.18 in /  1021.9 hPa Calm     86 % 0.00 in /  0 mm
05:53 37.3 °F /  2.9 °C 33.5 °F /  0.8 °C 30.18 in /  1021.9 hPa Calm     86 % 0.00 in /  0 mm
05:58 37.2 °F /  2.9 °C 33.4 °F /  0.8 °C 30.19 in /  1022.2 hPa Calm     86 % 0.00 in /  0 mm
06:03 37.0 °F /  2.8 °C 33.5 °F /  0.8 °C 30.19 in /  1022.2 hPa West 1.2 mph /  1.9 km/h 1.2 mph /  1.9 km/h 87 % 0.00 in /  0 mm
06:08 37.8 °F /  3.2 °C 34.3 °F /  1.3 °C 30.19 in /  1022.2 hPa Calm     87 % 0.00 in /  0 mm
06:13 38.3 °F /  3.5 °C 34.5 °F /  1.4 °C 30.19 in /  1022.2 hPa Calm     86 % 0.00 in /  0 mm
06:18 38.6 °F /  3.7 °C 34.5 °F /  1.4 °C 30.19 in /  1022.2 hPa Calm     85 % 0.00 in /  0 mm
06:23 38.9 °F /  3.8 °C 34.5 °F /  1.4 °C 30.20 in /  1022.6 hPa Calm     84 % 0.00 in /  0 mm
06:28 39.1 °F /  3.9 °C 34.7 °F /  1.5 °C 30.20 in /  1022.6 hPa WNW 1.2 mph /  1.9 km/h 1.2 mph /  1.9 km/h 84 % 0.00 in /  0 mm
06:33 39.5 °F /  4.2 °C 34.8 °F /  1.6 °C 30.20 in /  1022.6 hPa Calm     83 % 0.00 in /  0 mm
06:38 39.5 °F /  4.2 °C 34.5 °F /  1.4 °C 30.20 in /  1022.6 hPa Calm     82 % 0.00 in /  0 mm
06:43 38.9 °F /  3.8 °C 33.6 °F /  0.9 °C 30.21 in /  1022.9 hPa NW 1.2 mph /  1.9 km/h 1.2 mph /  1.9 km/h 81 % 0.00 in /  0 mm
06:48 37.5 °F /  3.1 °C 32.8 °F /  0.4 °C 30.21 in /  1022.9 hPa Calm     83 % 0.00 in /  0 mm
06:53 36.9 °F /  2.7 °C 32.8 °F /  0.4 °C 30.21 in /  1022.9 hPa Calm     85 % 0.00 in /  0 mm
06:58 36.6 °F /  2.6 °C 32.8 °F /  0.4 °C 30.21 in /  1022.9 hPa Calm     86 % 0.00 in /  0 mm
07:03 36.5 °F /  2.5 °C 33.0 °F /  0.6 °C 30.21 in /  1022.9 hPa Calm     87 % 0.00 in /  0 mm
07:08 36.4 °F /  2.4 °C 33.2 °F /  0.7 °C 30.22 in /  1023.2 hPa Calm     88 % 0.00 in /  0 mm
07:13 36.4 °F /  2.4 °C 33.2 °F /  0.7 °C 30.22 in /  1023.2 hPa Calm     88 % 0.00 in /  0 mm
07:18 36.3 °F /  2.4 °C 33.1 °F /  0.6 °C 30.22 in /  1023.2 hPa Calm     88 % 0.00 in /  0 mm
07:23 36.3 °F /  2.4 °C 33.1 °F /  0.6 °C 30.22 in /  1023.2 hPa North 1.2 mph /  1.9 km/h 1.2 mph /  1.9 km/h 88 % 0.00 in /  0 mm
07:28 36.4 °F /  2.4 °C 33.5 °F /  0.8 °C 30.23 in /  1023.6 hPa Calm     89 % 0.00 in /  0 mm
07:33 36.4 °F /  2.4 °C 33.5 °F /  0.8 °C 30.23 in /  1023.6 hPa North 1.2 mph /  1.9 km/h 1.2 mph /  1.9 km/h 89 % 0.00 in /  0 mm
07:38 36.5 °F /  2.5 °C 33.8 °F /  1 °C 30.23 in /  1023.6 hPa Calm     90 % 0.00 in /  0 mm
07:43 36.9 °F /  2.7 °C 34.2 °F /  1.2 °C 30.23 in /  1023.6 hPa North 1.2 mph /  1.9 km/h   90 % 0.00 in /  0 mm
07:48 38.0 °F /  3.3 °C 35.3 °F /  1.8 °C 30.23 in /  1023.6 hPa SE 1.2 mph /  1.9 km/h 1.2 mph /  1.9 km/h 90 % 0.00 in /  0 mm
07:53 39.2 °F /  4 °C 36.2 °F /  2.3 °C 30.23 in /  1023.6 hPa ESE 1.2 mph /  1.9 km/h 1.2 mph /  1.9 km/h 89 % 0.00 in /  0 mm
07:58 40.2 °F /  4.6 °C 36.6 °F /  2.6 °C 30.24 in /  1023.9 hPa ESE 2.0 mph /  3.2 km/h 2.0 mph /  3.2 km/h 87 % 0.00 in /  0 mm
08:03 40.9 °F /  4.9 °C 37.0 °F /  2.8 °C 30.24 in /  1023.9 hPa Calm     86 % 0.00 in /  0 mm
08:08 41.7 °F /  5.4 °C 37.2 °F /  2.9 °C 30.24 in /  1023.9 hPa East 1.2 mph /  1.9 km/h 1.2 mph /  1.9 km/h 84 % 0.00 in /  0 mm
08:13 42.2 °F /  5.7 °C 37.4 °F /  3 °C 30.24 in /  1023.9 hPa South 1.2 mph /  1.9 km/h   83 % 0.00 in /  0 mm
08:18 42.9 °F /  6.1 °C 37.5 °F /  3.1 °C 30.24 in /  1023.9 hPa SE 1.2 mph /  1.9 km/h 1.2 mph /  1.9 km/h 81 % 0.00 in /  0 mm
08:23 43.8 °F /  6.6 °C 38.0 °F /  3.3 °C 30.25 in /  1024.3 hPa Calm     80 % 0.00 in /  0 mm
08:28 44.8 °F /  7.1 °C 38.4 °F /  3.6 °C 30.25 in /  1024.3 hPa South 3.5 mph /  5.6 km/h 3.5 mph /  5.6 km/h 78 % 0.00 in /  0 mm
08:33 45.6 °F /  7.6 °C 38.5 °F /  3.6 °C 30.26 in /  1024.6 hPa SE 2.3 mph /  3.7 km/h 2.3 mph /  3.7 km/h 76 % 0.00 in /  0 mm
08:38 46.4 °F /  8 °C 38.9 °F /  3.8 °C 30.26 in /  1024.6 hPa South 1.2 mph /  1.9 km/h 1.2 mph /  1.9 km/h 75 % 0.00 in /  0 mm
08:43 47.3 °F /  8.5 °C 39.1 °F /  3.9 °C 30.26 in /  1024.6 hPa SSE 1.2 mph /  1.9 km/h 1.2 mph /  1.9 km/h 73 % 0.00 in /  0 mm
08:48 48.0 °F /  8.9 °C 39.4 °F /  4.1 °C 30.26 in /  1024.6 hPa ESE 1.2 mph /  1.9 km/h 1.2 mph /  1.9 km/h 72 % 0.00 in /  0 mm
08:53 48.8 °F /  9.3 °C 39.4 °F /  4.1 °C 30.26 in /  1024.6 hPa West 1.2 mph /  1.9 km/h 1.2 mph /  1.9 km/h 70 % 0.00 in /  0 mm
08:58 48.7 °F /  9.3 °C 39.4 °F /  4.1 °C 30.26 in /  1024.6 hPa Calm     70 % 0.00 in /  0 mm
09:03 48.6 °F /  9.2 °C 39.6 °F /  4.2 °C 30.26 in /  1024.6 hPa WNW 1.2 mph /  1.9 km/h 1.2 mph /  1.9 km/h 71 % 0.00 in /  0 mm
09:08 48.6 °F /  9.2 °C 39.6 °F /  4.2 °C 30.26 in /  1024.6 hPa West 1.2 mph /  1.9 km/h 1.2 mph /  1.9 km/h 71 % 0.00 in /  0 mm
09:13 48.9 °F /  9.4 °C 39.9 °F /  4.4 °C 30.27 in /  1024.9 hPa Calm     71 % 0.00 in /  0 mm
09:18 49.4 °F /  9.7 °C 40.4 °F /  4.7 °C 30.27 in /  1024.9 hPa Calm     71 % 0.00 in /  0 mm
09:23 50.1 °F /  10.1 °C 40.7 °F /  4.8 °C 30.27 in /  1024.9 hPa ESE 1.2 mph /  1.9 km/h   70 % 0.00 in /  0 mm
09:28 51.1 °F /  10.6 °C 40.9 °F /  4.9 °C 30.27 in /  1024.9 hPa Calm   0.2 mph /  0.3 km/h 68 % 0.00 in /  0 mm
09:33 51.7 °F /  10.9 °C 41.1 °F /  5.1 °C 30.27 in /  1024.9 hPa Calm     67 % 0.00 in /  0 mm
09:38 52.3 °F /  11.3 °C 41.3 °F /  5.2 °C 30.27 in /  1024.9 hPa Calm     66 % 0.00 in /  0 mm
09:43 52.4 °F /  11.3 °C 40.6 °F /  4.8 °C 30.27 in /  1024.9 hPa Calm     64 % 0.00 in /  0 mm
09:48 52.2 °F /  11.2 °C 40.4 °F /  4.7 °C 30.27 in /  1024.9 hPa Calm     64 % 0.00 in /  0 mm
09:53 52.5 °F /  11.4 °C 41.1 °F /  5.1 °C 30.27 in /  1024.9 hPa Calm     65 % 0.00 in /  0 mm
09:58 53.3 °F /  11.8 °C 41.0 °F /  5 °C 30.27 in /  1024.9 hPa Calm   0.1 mph /  0.2 km/h 63 % 0.00 in /  0 mm
10:03 53.3 °F /  11.8 °C 41.0 °F /  5 °C 30.27 in /  1024.9 hPa South 1.2 mph /  1.9 km/h 1.2 mph /  1.9 km/h 63 % 0.00 in /  0 mm
10:08 53.7 °F /  12.1 °C 40.1 °F /  4.5 °C 30.27 in /  1024.9 hPa Calm     60 % 0.00 in /  0 mm
10:13 54.4 °F /  12.4 °C 40.4 °F /  4.7 °C 30.27 in /  1024.9 hPa ESE 2.0 mph /  3.2 km/h 2.0 mph /  3.2 km/h 59 % 0.00 in /  0 mm
10:18 54.8 °F /  12.7 °C 40.7 °F /  4.8 °C 30.27 in /  1024.9 hPa ESE 2.3 mph /  3.7 km/h 2.3 mph /  3.7 km/h 59 % 0.00 in /  0 mm
10:23 55.1 °F /  12.8 °C 40.1 °F /  4.5 °C 30.27 in /  1024.9 hPa South 2.3 mph /  3.7 km/h 2.3 mph /  3.7 km/h 57 % 0.00 in /  0 mm
10:28 55.7 °F /  13.2 °C 42.0 °F /  5.6 °C 30.27 in /  1024.9 hPa SSW 1.0 mph /  1.6 km/h 1.0 mph /  1.6 km/h 60 % 0.00 in /  0 mm
10:33 56.1 °F /  13.4 °C 40.6 °F /  4.8 °C 30.27 in /  1024.9 hPa SSE 3.0 mph /  4.8 km/h 3.0 mph /  4.8 km/h 56 % 0.00 in /  0 mm
10:38 56.1 °F /  13.4 °C 39.7 °F /  4.3 °C 30.27 in /  1024.9 hPa NNW 2.3 mph /  3.7 km/h 2.3 mph /  3.7 km/h 54 % 0.00 in /  0 mm
10:43 55.7 °F /  13.2 °C 39.3 °F /  4.1 °C 30.27 in /  1024.9 hPa SE 2.3 mph /  3.7 km/h 2.3 mph /  3.7 km/h 54 % 0.00 in /  0 mm
10:48 56.5 °F /  13.6 °C 39.6 °F /  4.2 °C 30.27 in /  1024.9 hPa East 2.3 mph /  3.7 km/h 2.3 mph /  3.7 km/h 53 % 0.00 in /  0 mm
10:53 57.0 °F /  13.9 °C 39.0 °F /  3.9 °C 30.27 in /  1024.9 hPa SSE 1.2 mph /  1.9 km/h   51 % 0.00 in /  0 mm
10:58 57.2 °F /  14 °C 39.7 °F /  4.3 °C 30.27 in /  1024.9 hPa NE 2.3 mph /  3.7 km/h 2.3 mph /  3.7 km/h 52 % 0.00 in /  0 mm
11:03 57.4 °F /  14.1 °C 40.4 °F /  4.7 °C 30.27 in /  1024.9 hPa South 2.3 mph /  3.7 km/h 2.3 mph /  3.7 km/h 53 % 0.00 in /  0 mm
11:08 57.7 °F /  14.3 °C 41.2 °F /  5.1 °C 30.27 in /  1024.9 hPa SSW 2.0 mph /  3.2 km/h 2.0 mph /  3.2 km/h 54 % 0.00 in /  0 mm
11:13 57.9 °F /  14.4 °C 39.9 °F /  4.4 °C 30.27 in /  1024.9 hPa NNW 3.5 mph /  5.6 km/h 3.5 mph /  5.6 km/h 51 % 0.00 in /  0 mm
11:18 58.0 °F /  14.4 °C 40.5 °F /  4.7 °C 30.27 in /  1024.9 hPa West 1.2 mph /  1.9 km/h   52 % 0.00 in /  0 mm
11:23 58.3 °F /  14.6 °C 41.2 °F /  5.1 °C 30.27 in /  1024.9 hPa SSE 4.6 mph /  7.4 km/h 4.6 mph /  7.4 km/h 53 % 0.00 in /  0 mm
11:28 58.1 °F /  14.5 °C 40.1 °F /  4.5 °C 30.27 in /  1024.9 hPa West 1.2 mph /  1.9 km/h   51 % 0.00 in /  0 mm
11:33 57.9 °F /  14.4 °C 39.9 °F /  4.4 °C 30.27 in /  1024.9 hPa NW 3.5 mph /  5.6 km/h 3.5 mph /  5.6 km/h 51 % 0.00 in /  0 mm
11:38 57.9 °F /  14.4 °C 41.3 °F /  5.2 °C 30.26 in /  1024.6 hPa SSW 4.0 mph /  6.4 km/h 4.0 mph /  6.4 km/h 54 % 0.00 in /  0 mm
11:43 58.0 °F /  14.4 °C 40.5 °F /  4.7 °C 30.26 in /  1024.6 hPa WNW 3.5 mph /  5.6 km/h 3.5 mph /  5.6 km/h 52 % 0.00 in /  0 mm
11:48 58.2 °F /  14.6 °C 41.6 °F /  5.3 °C 30.26 in /  1024.6 hPa South 3.5 mph /  5.6 km/h 3.5 mph /  5.6 km/h 54 % 0.00 in /  0 mm
11:53 59.5 °F /  15.3 °C 42.3 °F /  5.7 °C 30.26 in /  1024.6 hPa NW 3.5 mph /  5.6 km/h 3.5 mph /  5.6 km/h 53 % 0.00 in /  0 mm
11:58 59.7 °F /  15.4 °C 40.5 °F /  4.7 °C 30.25 in /  1024.3 hPa East 1.2 mph /  1.9 km/h   49 % 0.00 in /  0 mm
12:03 59.3 °F /  15.2 °C 40.7 °F /  4.8 °C 30.25 in /  1024.3 hPa Calm     50 % 0.00 in /  0 mm
12:08 59.7 °F /  15.4 °C 41.5 °F /  5.3 °C 30.25 in /  1024.3 hPa SW 1.2 mph /  1.9 km/h 1.2 mph /  1.9 km/h 51 % 0.00 in /  0 mm
12:13 60.2 °F /  15.7 °C 41.0 °F /  5 °C 30.25 in /  1024.3 hPa NW 1.2 mph /  1.9 km/h 1.2 mph /  1.9 km/h 49 % 0.00 in /  0 mm
12:18 60.8 °F /  16 °C 41.5 °F /  5.3 °C 30.25 in /  1024.3 hPa SSE 3.5 mph /  5.6 km/h 3.5 mph /  5.6 km/h 49 % 0.00 in /  0 mm
12:23 61.1 °F /  16.2 °C 41.8 °F /  5.4 °C 30.24 in /  1023.9 hPa Calm     49 % 0.00 in /  0 mm
12:28 61.3 °F /  16.3 °C 40.9 °F /  4.9 °C 30.24 in /  1023.9 hPa WNW 1.2 mph /  1.9 km/h 1.2 mph /  1.9 km/h 47 % 0.00 in /  0 mm
12:33 61.1 °F /  16.2 °C 41.2 °F /  5.1 °C 30.24 in /  1023.9 hPa SSW 2.3 mph /  3.7 km/h 2.3 mph /  3.7 km/h 48 % 0.00 in /  0 mm
12:38 61.8 °F /  16.6 °C 41.9 °F /  5.5 °C 30.24 in /  1023.9 hPa WNW 1.2 mph /  1.9 km/h 1.2 mph /  1.9 km/h 48 % 0.00 in /  0 mm
12:44 61.3 °F /  16.3 °C 40.3 °F /  4.6 °C 30.24 in /  1023.9 hPa South 2.0 mph /  3.2 km/h 2.0 mph /  3.2 km/h 46 % 0.00 in /  0 mm
12:49 61.4 °F /  16.3 °C 40.4 °F /  4.7 °C 30.23 in /  1023.6 hPa SE 1.2 mph /  1.9 km/h   46 % 0.00 in /  0 mm
12:54 61.6 °F /  16.4 °C 41.2 °F /  5.1 °C 30.23 in /  1023.6 hPa Calm     47 % 0.00 in /  0 mm
12:59 61.2 °F /  16.2 °C 41.3 °F /  5.2 °C 30.23 in /  1023.6 hPa SSE 3.5 mph /  5.6 km/h 3.5 mph /  5.6 km/h 48 % 0.00 in /  0 mm
13:04 61.8 °F /  16.6 °C 40.8 °F /  4.9 °C 30.23 in /  1023.6 hPa ESE 2.3 mph /  3.7 km/h 2.3 mph /  3.7 km/h 46 % 0.00 in /  0 mm
13:09 61.9 °F /  16.6 °C 40.9 °F /  4.9 °C 30.23 in /  1023.6 hPa South 3.5 mph /  5.6 km/h 3.5 mph /  5.6 km/h 46 % 0.00 in /  0 mm
13:14 61.7 °F /  16.5 °C 41.3 °F /  5.2 °C 30.23 in /  1023.6 hPa South 2.3 mph /  3.7 km/h 2.3 mph /  3.7 km/h 47 % 0.00 in /  0 mm
13:19 61.6 °F /  16.4 °C 39.5 °F /  4.2 °C 30.22 in /  1023.2 hPa SE 2.3 mph /  3.7 km/h 2.3 mph /  3.7 km/h 44 % 0.00 in /  0 mm
13:24 62.0 °F /  16.7 °C 41.0 °F /  5 °C 30.22 in /  1023.2 hPa Calm     46 % 0.00 in /  0 mm
13:29 62.4 °F /  16.9 °C 40.8 °F /  4.9 °C 30.22 in /  1023.2 hPa North 2.3 mph /  3.7 km/h 2.3 mph /  3.7 km/h 45 % 0.00 in /  0 mm
13:34 62.3 °F /  16.8 °C 42.3 °F /  5.7 °C 30.22 in /  1023.2 hPa Calm     48 % 0.00 in /  0 mm
13:39 61.7 °F /  16.5 °C 40.7 °F /  4.8 °C 30.22 in /  1023.2 hPa South 1.2 mph /  1.9 km/h   46 % 0.00 in /  0 mm
13:44 62.1 °F /  16.7 °C 40.5 °F /  4.7 °C 30.22 in /  1023.2 hPa NW 2.3 mph /  3.7 km/h 2.3 mph /  3.7 km/h 45 % 0.00 in /  0 mm
13:49 61.8 °F /  16.6 °C 41.9 °F /  5.5 °C 30.21 in /  1022.9 hPa Calm   0.1 mph /  0.2 km/h 48 % 0.00 in /  0 mm
13:54 62.4 °F /  16.9 °C 41.3 °F /  5.2 °C 30.21 in /  1022.9 hPa Calm     46 % 0.00 in /  0 mm
13:59 63.2 °F /  17.3 °C 41.5 °F /  5.3 °C 30.21 in /  1022.9 hPa SE 3.5 mph /  5.6 km/h 3.5 mph /  5.6 km/h 45 % 0.00 in /  0 mm
14:04 63.5 °F /  17.5 °C 42.9 °F /  6.1 °C 30.21 in /  1022.9 hPa Calm     47 % 0.00 in /  0 mm
14:09 63.3 °F /  17.4 °C 40.4 °F /  4.7 °C 30.21 in /  1022.9 hPa WNW 2.0 mph /  3.2 km/h 2.0 mph /  3.2 km/h 43 % 0.00 in /  0 mm
14:14 62.6 °F /  17 °C 40.9 °F /  4.9 °C 30.21 in /  1022.9 hPa SE 1.2 mph /  1.9 km/h   45 % 0.00 in /  0 mm
14:19 62.3 °F /  16.8 °C 39.5 °F /  4.2 °C 30.21 in /  1022.9 hPa WNW 2.3 mph /  3.7 km/h 2.3 mph /  3.7 km/h 43 % 0.00 in /  0 mm
14:24 62.2 °F /  16.8 °C 40.0 °F /  4.4 °C 30.21 in /  1022.9 hPa NW 1.2 mph /  1.9 km/h 1.2 mph /  1.9 km/h 44 % 0.00 in /  0 mm
14:29 62.4 °F /  16.9 °C 40.2 °F /  4.6 °C 30.21 in /  1022.9 hPa WNW 1.2 mph /  1.9 km/h   44 % 0.00 in /  0 mm
14:34 62.4 °F /  16.9 °C 39.0 °F /  3.9 °C 30.21 in /  1022.9 hPa Calm     42 % 0.00 in /  0 mm
14:39 62.4 °F /  16.9 °C 39.0 °F /  3.9 °C 30.20 in /  1022.6 hPa SW 1.2 mph /  1.9 km/h   42 % 0.00 in /  0 mm
14:44 62.7 °F /  17.1 °C 39.3 °F /  4.1 °C 30.20 in /  1022.6 hPa Calm     42 % 0.00 in /  0 mm
14:49 63.0 °F /  17.2 °C 40.1 °F /  4.5 °C 30.20 in /  1022.6 hPa NW 2.3 mph /  3.7 km/h 2.3 mph /  3.7 km/h 43 % 0.00 in /  0 mm
14:54 63.2 °F /  17.3 °C 39.7 °F /  4.3 °C 30.20 in /  1022.6 hPa Calm     42 % 0.00 in /  0 mm
14:59 63.4 °F /  17.4 °C 40.5 °F /  4.7 °C 30.20 in /  1022.6 hPa SE 1.2 mph /  1.9 km/h 1.2 mph /  1.9 km/h 43 % 0.00 in /  0 mm
15:04 63.7 °F /  17.6 °C 39.5 °F /  4.2 °C 30.20 in /  1022.6 hPa Calm     41 % 0.00 in /  0 mm
15:09 63.4 °F /  17.4 °C 39.3 °F /  4.1 °C 30.20 in /  1022.6 hPa NW 3.5 mph /  5.6 km/h 3.5 mph /  5.6 km/h 41 % 0.00 in /  0 mm
15:14 63.1 °F /  17.3 °C 40.2 °F /  4.6 °C 30.20 in /  1022.6 hPa NW 1.2 mph /  1.9 km/h 1.2 mph /  1.9 km/h 43 % 0.00 in /  0 mm
15:19 63.0 °F /  17.2 °C 39.5 °F /  4.2 °C 30.20 in /  1022.6 hPa Calm   0.1 mph /  0.2 km/h 42 % 0.00 in /  0 mm
15:24 63.0 °F /  17.2 °C 40.1 °F /  4.5 °C 30.20 in /  1022.6 hPa Calm     43 % 0.00 in /  0 mm
15:29 63.1 °F /  17.3 °C 39.6 °F /  4.2 °C 30.20 in /  1022.6 hPa NW 1.2 mph /  1.9 km/h   42 % 0.00 in /  0 mm
15:34 63.0 °F /  17.2 °C 39.5 °F /  4.2 °C 30.20 in /  1022.6 hPa NW 2.3 mph /  3.7 km/h 2.3 mph /  3.7 km/h 42 % 0.00 in /  0 mm
15:39 62.7 °F /  17.1 °C 39.9 °F /  4.4 °C 30.20 in /  1022.6 hPa NW 1.2 mph /  1.9 km/h 1.2 mph /  1.9 km/h 43 % 0.00 in /  0 mm
15:44 62.7 °F /  17.1 °C 39.9 °F /  4.4 °C 30.20 in /  1022.6 hPa NW 1.2 mph /  1.9 km/h 1.2 mph /  1.9 km/h 43 % 0.00 in /  0 mm
15:49 62.9 °F /  17.2 °C 38.8 °F /  3.8 °C 30.20 in /  1022.6 hPa Calm     41 % 0.00 in /  0 mm
15:54 62.9 °F /  17.2 °C 39.4 °F /  4.1 °C 30.20 in /  1022.6 hPa Calm     42 % 0.00 in /  0 mm
15:59 62.8 °F /  17.1 °C 38.7 °F /  3.7 °C 30.20 in /  1022.6 hPa NW 3.5 mph /  5.6 km/h 3.5 mph /  5.6 km/h 41 % 0.00 in /  0 mm
16:04 62.7 °F /  17.1 °C 38.6 °F /  3.7 °C 30.20 in /  1022.6 hPa NW 3.5 mph /  5.6 km/h 3.5 mph /  5.6 km/h 41 % 0.00 in /  0 mm
16:09 62.6 °F /  17 °C 38.6 °F /  3.7 °C 30.20 in /  1022.6 hPa NNW 1.2 mph /  1.9 km/h 1.2 mph /  1.9 km/h 41 % 0.00 in /  0 mm
16:14 62.8 °F /  17.1 °C 38.7 °F /  3.7 °C 30.20 in /  1022.6 hPa NW 2.3 mph /  3.7 km/h 2.3 mph /  3.7 km/h 41 % 0.00 in /  0 mm
16:19 62.7 °F /  17.1 °C 38.0 °F /  3.3 °C 30.20 in /  1022.6 hPa North 2.3 mph /  3.7 km/h 2.3 mph /  3.7 km/h 40 % 0.00 in /  0 mm
16:24 62.6 °F /  17 °C 37.3 °F /  2.9 °C 30.20 in /  1022.6 hPa WNW 2.3 mph /  3.7 km/h 2.3 mph /  3.7 km/h 39 % 0.00 in /  0 mm
16:29 62.5 °F /  16.9 °C 37.2 °F /  2.9 °C 30.20 in /  1022.6 hPa NW 1.2 mph /  1.9 km/h   39 % 0.00 in /  0 mm
16:34 62.3 °F /  16.8 °C 37.0 °F /  2.8 °C 30.21 in /  1022.9 hPa NW 3.5 mph /  5.6 km/h 3.5 mph /  5.6 km/h 39 % 0.00 in /  0 mm
16:39 62.1 °F /  16.7 °C 37.5 °F /  3.1 °C 30.21 in /  1022.9 hPa NW 4.6 mph /  7.4 km/h 4.6 mph /  7.4 km/h 40 % 0.00 in /  0 mm
16:44 61.9 °F /  16.6 °C 37.3 °F /  2.9 °C 30.21 in /  1022.9 hPa NW 2.3 mph /  3.7 km/h 2.3 mph /  3.7 km/h 40 % 0.00 in /  0 mm
16:49 61.7 °F /  16.5 °C 37.7 °F /  3.2 °C 30.21 in /  1022.9 hPa WNW 2.3 mph /  3.7 km/h 2.3 mph /  3.7 km/h 41 % 0.00 in /  0 mm
16:54 61.6 °F /  16.4 °C 38.9 °F /  3.8 °C 30.21 in /  1022.9 hPa WNW 1.2 mph /  1.9 km/h 1.2 mph /  1.9 km/h 43 % 0.00 in /  0 mm
16:59 61.5 °F /  16.4 °C 38.2 °F /  3.4 °C 30.21 in /  1022.9 hPa NNW 2.3 mph /  3.7 km/h 2.3 mph /  3.7 km/h 42 % 0.00 in /  0 mm
17:04 61.4 °F /  16.3 °C 37.5 °F /  3.1 °C 30.21 in /  1022.9 hPa NW 2.3 mph /  3.7 km/h 2.3 mph /  3.7 km/h 41 % 0.00 in /  0 mm
17:09 61.2 °F /  16.2 °C 37.9 °F /  3.3 °C 30.21 in /  1022.9 hPa NW 1.2 mph /  1.9 km/h   42 % 0.00 in /  0 mm
17:14 61.0 °F /  16.1 °C 37.7 °F /  3.2 °C 30.22 in /  1023.2 hPa NW 1.2 mph /  1.9 km/h 1.2 mph /  1.9 km/h 42 % 0.00 in /  0 mm
17:19 60.8 °F /  16 °C 37.5 °F /  3.1 °C 30.22 in /  1023.2 hPa Calm   0.3 mph /  0.5 km/h 42 % 0.00 in /  0 mm
17:24 60.6 °F /  15.9 °C 38.0 °F /  3.3 °C 30.22 in /  1023.2 hPa Calm     43 % 0.00 in /  0 mm
17:29 60.3 °F /  15.7 °C 37.7 °F /  3.2 °C 30.22 in /  1023.2 hPa Calm     43 % 0.00 in /  0 mm
17:34 59.9 °F /  15.5 °C 37.9 °F /  3.3 °C 30.22 in /  1023.2 hPa Calm     44 % 0.00 in /  0 mm
17:39 59.4 °F /  15.2 °C 38.6 °F /  3.7 °C 30.22 in /  1023.2 hPa Calm     46 % 0.00 in /  0 mm
17:44 58.6 °F /  14.8 °C 39.0 °F /  3.9 °C 30.22 in /  1023.2 hPa Calm     48 % 0.00 in /  0 mm
17:49 57.8 °F /  14.3 °C 38.8 °F /  3.8 °C 30.22 in /  1023.2 hPa Calm     49 % 0.00 in /  0 mm
17:54 57.1 °F /  13.9 °C 39.1 °F /  3.9 °C 30.22 in /  1023.2 hPa Calm     51 % 0.00 in /  0 mm
18:00 56.3 °F /  13.5 °C 38.4 °F /  3.6 °C 30.22 in /  1023.2 hPa Calm     51 % 0.00 in /  0 mm
18:05 55.7 °F /  13.2 °C 38.3 °F /  3.5 °C 30.23 in /  1023.6 hPa Calm     52 % 0.00 in /  0 mm
18:09 55.3 °F /  12.9 °C 38.4 °F /  3.6 °C 30.23 in /  1023.6 hPa Calm     53 % 0.00 in /  0 mm
18:15 55.0 °F /  12.8 °C 38.6 °F /  3.7 °C 30.23 in /  1023.6 hPa Calm     54 % 0.00 in /  0 mm
18:20 54.5 °F /  12.5 °C 38.7 °F /  3.7 °C 30.23 in /  1023.6 hPa Calm     55 % 0.00 in /  0 mm
18:25 53.9 °F /  12.2 °C 38.6 °F /  3.7 °C 30.23 in /  1023.6 hPa Calm     56 % 0.00 in /  0 mm
18:30 53.5 °F /  11.9 °C 39.1 °F /  3.9 °C 30.24 in /  1023.9 hPa Calm     58 % 0.00 in /  0 mm
18:35 53.1 °F /  11.7 °C 39.1 °F /  3.9 °C 30.24 in /  1023.9 hPa Calm     59 % 0.00 in /  0 mm
18:40 52.8 °F /  11.6 °C 39.3 °F /  4.1 °C 30.24 in /  1023.9 hPa Calm     60 % 0.00 in /  0 mm
18:45 52.4 °F /  11.3 °C 38.9 °F /  3.8 °C 30.24 in /  1023.9 hPa Calm     60 % 0.00 in /  0 mm
18:50 52.0 °F /  11.1 °C 39.4 °F /  4.1 °C 30.24 in /  1023.9 hPa Calm     62 % 0.00 in /  0 mm
18:55 51.6 °F /  10.9 °C 39.0 °F /  3.9 °C 30.24 in /  1023.9 hPa Calm     62 % 0.00 in /  0 mm
19:00 51.4 °F /  10.8 °C 39.2 °F /  4 °C 30.25 in /  1024.3 hPa Calm     63 % 0.00 in /  0 mm
19:05 51.6 °F /  10.9 °C 39.4 °F /  4.1 °C 30.25 in /  1024.3 hPa Calm     63 % 0.00 in /  0 mm
19:10 51.4 °F /  10.8 °C 39.2 °F /  4 °C 30.25 in /  1024.3 hPa Calm     63 % 0.00 in /  0 mm
19:15 51.1 °F /  10.6 °C 38.9 °F /  3.8 °C 30.25 in /  1024.3 hPa Calm     63 % 0.00 in /  0 mm
19:20 50.9 °F /  10.5 °C 39.1 °F /  3.9 °C 30.25 in /  1024.3 hPa Calm     64 % 0.00 in /  0 mm
19:25 50.9 °F /  10.5 °C 39.5 °F /  4.2 °C 30.25 in /  1024.3 hPa Calm     65 % 0.00 in /  0 mm
19:30 50.6 °F /  10.3 °C 39.3 °F /  4.1 °C 30.25 in /  1024.3 hPa Calm     65 % 0.00 in /  0 mm
19:35 50.4 °F /  10.2 °C 39.1 °F /  3.9 °C 30.25 in /  1024.3 hPa Calm     65 % 0.00 in /  0 mm
19:40 50.1 °F /  10.1 °C 39.2 °F /  4 °C 30.25 in /  1024.3 hPa Calm     66 % 0.00 in /  0 mm
19:45 49.7 °F /  9.8 °C 39.6 °F /  4.2 °C 30.25 in /  1024.3 hPa Calm     68 % 0.00 in /  0 mm
19:50 49.3 °F /  9.6 °C 39.2 °F /  4 °C 30.25 in /  1024.3 hPa Calm     68 % 0.00 in /  0 mm
19:55 49.0 °F /  9.4 °C 40.0 °F /  4.4 °C 30.25 in /  1024.3 hPa Calm     71 % 0.00 in /  0 mm
20:00 48.7 °F /  9.3 °C 39.7 °F /  4.3 °C 30.26 in /  1024.6 hPa Calm     71 % 0.00 in /  0 mm
20:05 48.6 °F /  9.2 °C 40.0 °F /  4.4 °C 30.26 in /  1024.6 hPa Calm     72 % 0.00 in /  0 mm
20:10 48.5 °F /  9.2 °C 39.2 °F /  4 °C 30.26 in /  1024.6 hPa Calm     70 % 0.00 in /  0 mm
20:15 48.1 °F /  8.9 °C 39.1 °F /  3.9 °C 30.26 in /  1024.6 hPa Calm     71 % 0.00 in /  0 mm
20:20 47.8 °F /  8.8 °C 39.2 °F /  4 °C 30.26 in /  1024.6 hPa Calm     72 % 0.00 in /  0 mm
20:25 47.4 °F /  8.6 °C 39.5 °F /  4.2 °C 30.26 in /  1024.6 hPa Calm     74 % 0.00 in /  0 mm
20:30 46.8 °F /  8.2 °C 38.6 °F /  3.7 °C 30.26 in /  1024.6 hPa Calm     73 % 0.00 in /  0 mm
20:35 46.1 °F /  7.8 °C 38.6 °F /  3.7 °C 30.26 in /  1024.6 hPa Calm     75 % 0.00 in /  0 mm
20:40 45.7 °F /  7.6 °C 38.6 °F /  3.7 °C 30.27 in /  1024.9 hPa Calm     76 % 0.00 in /  0 mm
20:45 45.6 °F /  7.6 °C 38.5 °F /  3.6 °C 30.27 in /  1024.9 hPa Calm     76 % 0.00 in /  0 mm
20:50 45.4 °F /  7.4 °C 38.6 °F /  3.7 °C 30.27 in /  1024.9 hPa Calm     77 % 0.00 in /  0 mm
20:55 45.2 °F /  7.3 °C 38.4 °F /  3.6 °C 30.27 in /  1024.9 hPa Calm     77 % 0.00 in /  0 mm
21:00 45.0 °F /  7.2 °C 38.2 °F /  3.4 °C 30.27 in /  1024.9 hPa Calm     77 % 0.00 in /  0 mm
21:06 44.9 °F /  7.2 °C 38.8 °F /  3.8 °C 30.28 in /  1025.3 hPa Calm     79 % 0.00 in /  0 mm
21:11 44.7 °F /  7.1 °C 38.6 °F /  3.7 °C 30.28 in /  1025.3 hPa Calm     79 % 0.00 in /  0 mm
21:16 44.9 °F /  7.2 °C 38.5 °F /  3.6 °C 30.28 in /  1025.3 hPa Calm     78 % 0.00 in /  0 mm
21:21 44.9 °F /  7.2 °C 38.5 °F /  3.6 °C 30.28 in /  1025.3 hPa Calm     78 % 0.00 in /  0 mm
21:26 44.8 °F /  7.1 °C 38.4 °F /  3.6 °C 30.28 in /  1025.3 hPa Calm     78 % 0.00 in /  0 mm
21:31 44.5 °F /  6.9 °C 38.1 °F /  3.4 °C 30.29 in /  1025.6 hPa Calm     78 % 0.00 in /  0 mm
21:36 44.4 °F /  6.9 °C 38.0 °F /  3.3 °C 30.29 in /  1025.6 hPa Calm     78 % 0.00 in /  0 mm
21:41 44.3 °F /  6.8 °C 37.9 °F /  3.3 °C 30.29 in /  1025.6 hPa Calm     78 % 0.00 in /  0 mm
21:46 44.1 °F /  6.7 °C 37.7 °F /  3.2 °C 30.30 in /  1026 hPa Calm     78 % 0.00 in /  0 mm
21:51 44.0 °F /  6.7 °C 37.6 °F /  3.1 °C 30.30 in /  1026 hPa Calm     78 % 0.00 in /  0 mm
21:56 43.9 °F /  6.6 °C 37.5 °F /  3.1 °C 30.30 in /  1026 hPa Calm     78 % 0.00 in /  0 mm
22:01 43.6 °F /  6.4 °C 37.5 °F /  3.1 °C 30.30 in /  1026 hPa Calm     79 % 0.00 in /  0 mm
22:06 43.6 °F /  6.4 °C 37.8 °F /  3.2 °C 30.30 in /  1026 hPa Calm     80 % 0.00 in /  0 mm
22:11 43.9 °F /  6.6 °C 37.8 °F /  3.2 °C 30.30 in /  1026 hPa Calm     79 % 0.00 in /  0 mm
22:16 43.8 °F /  6.6 °C 37.7 °F /  3.2 °C 30.30 in /  1026 hPa Calm     79 % 0.00 in /  0 mm
22:21 43.4 °F /  6.3 °C 37.3 °F /  2.9 °C 30.30 in /  1026 hPa Calm     79 % 0.00 in /  0 mm
22:26 43.5 °F /  6.4 °C 37.4 °F /  3 °C 30.30 in /  1026 hPa Calm     79 % 0.00 in /  0 mm
22:31 43.4 °F /  6.3 °C 37.0 °F /  2.8 °C 30.30 in /  1026 hPa Calm     78 % 0.00 in /  0 mm
22:36 43.3 °F /  6.3 °C 36.9 °F /  2.7 °C 30.31 in /  1026.3 hPa Calm     78 % 0.00 in /  0 mm
22:41 43.2 °F /  6.2 °C 36.8 °F /  2.7 °C 30.31 in /  1026.3 hPa Calm     78 % 0.00 in /  0 mm
22:46 42.9 °F /  6.1 °C 36.8 °F /  2.7 °C 30.31 in /  1026.3 hPa Calm     79 % 0.00 in /  0 mm
22:51 42.7 °F /  5.9 °C 37.0 °F /  2.8 °C 30.31 in /  1026.3 hPa Calm     80 % 0.00 in /  0 mm
22:56 42.5 °F /  5.8 °C 37.1 °F /  2.8 °C 30.31 in /  1026.3 hPa Calm     81 % 0.00 in /  0 mm
23:01 42.4 °F /  5.8 °C 37.0 °F /  2.8 °C 30.31 in /  1026.3 hPa Calm     81 % 0.00 in /  0 mm
23:06 42.3 °F /  5.7 °C 36.9 °F /  2.7 °C 30.31 in /  1026.3 hPa Calm     81 % 0.00 in /  0 mm
23:11 41.9 °F /  5.5 °C 36.5 °F /  2.5 °C 30.31 in /  1026.3 hPa Calm     81 % 0.00 in /  0 mm
23:16 41.7 °F /  5.4 °C 36.3 °F /  2.4 °C 30.31 in /  1026.3 hPa Calm     81 % 0.00 in /  0 mm
23:21 41.6 °F /  5.3 °C 36.5 °F /  2.5 °C 30.31 in /  1026.3 hPa Calm     82 % 0.00 in /  0 mm
23:26 41.3 °F /  5.2 °C 36.2 °F /  2.3 °C 30.32 in /  1026.6 hPa Calm     82 % 0.00 in /  0 mm
23:31 41.2 °F /  5.1 °C 36.4 °F /  2.4 °C 30.32 in /  1026.6 hPa Calm     83 % 0.00 in /  0 mm
23:36 41.1 °F /  5.1 °C 36.3 °F /  2.4 °C 30.32 in /  1026.6 hPa Calm     83 % 0.00 in /  0 mm
23:41 41.0 °F /  5 °C 36.2 °F /  2.3 °C 30.32 in /  1026.6 hPa Calm     83 % 0.00 in /  0 mm
23:46 40.9 °F /  4.9 °C 36.1 °F /  2.3 °C 30.32 in /  1026.6 hPa Calm     83 % 0.00 in /  0 mm
23:51 40.8 °F /  4.9 °C 36.3 °F /  2.4 °C 30.32 in /  1026.6 hPa Calm     84 % 0.00 in /  0 mm
23:56 40.9 °F /  4.9 °C 36.4 °F /  2.4 °C 30.32 in /  1026.6 hPa Calm     84 % 0.00 in /  0 mm
Park Place, Exeter, Tulare County, California, USA
Compliments of Weather Underground - 2.75 mb